Time;durP1;ratioP1;P1;durP2;ratioP2;P2;SDS_P1;SDS_P2;PMS_P1;PMS_P2;Temp;Humidity;BMP_temperature;BMP_pressure;BME280_temperature;BME280_humidity;BME280_pressure;Samples;Min_cycle;Max_cycle;Signal;HPM_P1;HPM_P2
2022/01/11 00:00:28;;;;;;;;;;;-1.40;99.90;;;;;;4971450;28;19922;-75
2022/01/11 00:02:55;;;;;;;;;;;-1.40;99.90;;;;;;4956827;28;20370;-76
2022/01/11 00:07:50;;;;;;;;;;;-1.50;99.90;;;;;;4972681;28;20409;-75
2022/01/11 00:10:25;;;;;;;;;;;-1.50;99.90;;;;;;4956747;28;19925;-76
2022/01/11 00:12:51;;;;;;;;;;;-1.50;99.90;;;;;;4956609;28;20015;-76
2022/01/11 00:15:19;;;;;;;;;;;-1.50;99.90;;;;;;4957216;28;19929;-75
2022/01/11 00:17:45;;;;;;;;;;;-1.50;99.90;;;;;;4956577;28;20311;-76
2022/01/11 00:20:15;;;;;;;;;;;-1.50;99.90;;;;;;4956404;28;19943;-76
2022/01/11 00:25:31;;;;;;;;;;;-1.40;99.90;;;;;;4986707;28;20390;-76
2022/01/11 00:28:00;;;;;;;;;;;-1.50;99.90;;;;;;4973110;28;19922;-76
2022/01/11 00:30:34;;;;;;;;;;;-1.50;99.90;;;;;;4956819;28;19929;-76
2022/01/11 00:33:03;;;;;;;;;;;-1.50;99.90;;;;;;4980296;28;19926;-75
2022/01/11 00:35:39;;;;;;;;;;;-1.50;99.90;;;;;;4977484;28;19989;-76
2022/01/11 00:38:05;;;;;;;;;;;-1.50;99.90;;;;;;4957381;28;19927;-76
2022/01/11 00:40:31;;;;;;;;;;;-1.50;99.90;;;;;;4962112;28;19922;-76
2022/01/11 00:43:00;;;;;;;;;;;-1.50;99.90;;;;;;4975976;28;19921;-76
2022/01/11 00:45:26;;;;;;;;;;;-1.40;99.90;;;;;;4975475;28;20386;-76
2022/01/11 00:47:52;;;;;;;;;;;-1.50;99.90;;;;;;4975807;28;19921;-76
2022/01/11 00:50:18;;;;;;;;;;;-1.50;99.90;;;;;;4971520;28;20290;-76
2022/01/11 00:52:44;;;;;;;;;;;-1.50;99.90;;;;;;4981460;28;19924;-76
2022/01/11 00:55:09;;;;;;;;;;;-1.40;99.90;;;;;;4975620;28;19922;-76
2022/01/11 00:57:38;;;;;;;;;;;-1.40;99.90;;;;;;4960039;28;19932;-76
2022/01/11 01:00:08;;;;;;;;;;;-1.40;99.90;;;;;;4979436;28;19926;-76
2022/01/11 01:02:34;;;;;;;;;;;-1.50;99.90;;;;;;4975665;28;19930;-76
2022/01/11 01:04:59;;;;;;;;;;;-1.40;99.90;;;;;;4975366;28;20315;-75
2022/01/11 01:07:25;;;;;;;;;;;-1.50;99.90;;;;;;4975489;28;20206;-75
2022/01/11 01:10:07;;;;;;;;;;;-1.50;99.90;;;;;;4977478;28;19984;-75
2022/01/11 01:12:33;;;;;;;;;;;-1.50;99.90;;;;;;4972284;28;19969;-76
2022/01/11 01:14:59;;;;;;;;;;;-1.50;99.90;;;;;;4955705;28;20276;-75
2022/01/11 01:17:24;;;;;;;;;;;-1.50;99.90;;;;;;4955868;28;19933;-76
2022/01/11 01:19:50;;;;;;;;;;;-1.50;99.90;;;;;;4979432;28;20398;-76
2022/01/11 01:22:16;;;;;;;;;;;-1.50;99.90;;;;;;4966239;28;20012;-75
2022/01/11 01:24:41;;;;;;;;;;;-1.60;99.90;;;;;;4979035;28;19973;-75
2022/01/11 01:27:07;;;;;;;;;;;-1.60;99.90;;;;;;4978984;28;19975;-75
2022/01/11 01:29:35;;;;;;;;;;;-1.50;99.90;;;;;;4979041;28;19984;-75
2022/01/11 01:32:01;;;;;;;;;;;-1.70;99.90;;;;;;4978745;28;19965;-75
2022/01/11 01:34:27;;;;;;;;;;;-1.70;99.90;;;;;;4978766;28;19928;-76
2022/01/11 01:36:53;;;;;;;;;;;-1.60;99.90;;;;;;4979176;28;20429;-75
2022/01/11 01:39:18;;;;;;;;;;;-1.60;99.90;;;;;;4970032;28;19922;-76
2022/01/11 01:41:45;;;;;;;;;;;-1.70;99.90;;;;;;4975451;28;20012;-75
2022/01/11 01:44:12;;;;;;;;;;;-1.70;99.90;;;;;;4959323;28;19996;-75
2022/01/11 01:46:38;;;;;;;;;;;-1.70;99.90;;;;;;4958931;28;19929;-75
2022/01/11 01:49:03;;;;;;;;;;;-1.70;99.90;;;;;;4959460;28;19926;-75
2022/01/11 01:51:29;;;;;;;;;;;-1.60;99.90;;;;;;4976812;28;19926;-76
2022/01/11 01:53:55;;;;;;;;;;;-1.60;99.90;;;;;;4967028;28;20361;-75
2022/01/11 01:56:22;;;;;;;;;;;-1.50;99.90;;;;;;4978751;28;19948;-75
2022/01/11 01:58:48;;;;;;;;;;;-1.50;99.90;;;;;;4978422;28;19921;-76
2022/01/11 02:01:14;;;;;;;;;;;-1.60;99.90;;;;;;4973078;28;19992;-75
2022/01/11 02:03:43;;;;;;;;;;;-1.50;99.90;;;;;;4975165;28;19923;-75
2022/01/11 02:06:11;;;;;;;;;;;-1.50;99.90;;;;;;4988389;28;19926;-75
2022/01/11 02:08:37;;;;;;;;;;;-1.40;99.90;;;;;;4990715;28;19929;-75
2022/01/11 02:11:03;;;;;;;;;;;-1.40;99.90;;;;;;4991395;28;20413;-75
2022/01/11 02:13:29;;;;;;;;;;;-1.40;99.90;;;;;;4973975;28;20013;-75
2022/01/11 02:15:57;;;;;;;;;;;-1.40;99.90;;;;;;4958826;28;20425;-75
2022/01/11 02:18:25;;;;;;;;;;;-1.40;99.90;;;;;;4959297;28;19969;-75
2022/01/11 02:20:51;;;;;;;;;;;-1.40;99.90;;;;;;4959168;28;20008;-75
2022/01/11 02:23:18;;;;;;;;;;;-1.30;99.90;;;;;;4958692;28;19929;-75
2022/01/11 02:25:44;;;;;;;;;;;-1.30;99.90;;;;;;4959229;28;19922;-76
2022/01/11 02:28:11;;;;;;;;;;;-1.30;99.90;;;;;;4958516;28;20386;-75
2022/01/11 02:30:37;;;;;;;;;;;-1.20;99.90;;;;;;4958453;28;20013;-76
2022/01/11 02:33:06;;;;;;;;;;;-1.10;99.90;;;;;;4972064;28;19961;-75
2022/01/11 02:35:32;;;;;;;;;;;-1.20;99.90;;;;;;4960767;28;20005;-75
2022/01/11 02:37:58;;;;;;;;;;;-1.20;99.90;;;;;;4976369;28;20437;-76
2022/01/11 02:40:23;;;;;;;;;;;-1.10;99.90;;;;;;4966799;28;20380;-75
2022/01/11 02:42:52;;;;;;;;;;;-1.10;99.90;;;;;;4957978;28;20005;-75
2022/01/11 02:45:18;;;;;;;;;;;-1.10;99.90;;;;;;4958848;28;20009;-75
2022/01/11 02:47:46;;;;;;;;;;;-1.10;99.90;;;;;;4977605;28;19922;-75
2022/01/11 02:50:12;;;;;;;;;;;-1.10;99.90;;;;;;4968607;28;19922;-76
2022/01/11 02:52:38;;;;;;;;;;;-1.10;99.90;;;;;;4958002;28;19923;-75
2022/01/11 02:55:08;;;;;;;;;;;-1.00;99.90;;;;;;4964354;28;20037;-75
2022/01/11 02:57:34;;;;;;;;;;;-1.10;99.90;;;;;;4972367;28;20380;-75
2022/01/11 03:00:00;;;;;;;;;;;-1.00;99.90;;;;;;4981044;28;19972;-75
2022/01/11 03:02:28;;;;;;;;;;;-1.10;99.90;;;;;;4977744;28;19976;-75
2022/01/11 03:04:54;;;;;;;;;;;-1.10;99.90;;;;;;4976720;28;19937;-75
2022/01/11 03:07:20;;;;;;;;;;;-1.20;99.90;;;;;;4993656;28;20310;-75
2022/01/11 03:12:23;;;;;;;;;;;-1.10;99.90;;;;;;4993310;28;19926;-75
2022/01/11 03:14:49;;;;;;;;;;;-1.10;99.90;;;;;;4961943;28;19922;-76
2022/01/11 03:17:14;;;;;;;;;;;-1.10;99.90;;;;;;4957872;28;19930;-75
2022/01/11 03:19:40;;;;;;;;;;;-1.10;99.90;;;;;;4974870;28;19972;-75
2022/01/11 03:22:06;;;;;;;;;;;-1.10;99.90;;;;;;4957780;28;19961;-75
2022/01/11 03:24:31;;;;;;;;;;;-1.10;99.90;;;;;;4958024;28;20380;-75
2022/01/11 03:26:57;;;;;;;;;;;-1.10;99.90;;;;;;4957966;28;19944;-76
2022/01/11 03:29:22;;;;;;;;;;;-1.10;99.90;;;;;;4959744;28;19926;-75
2022/01/11 03:31:48;;;;;;;;;;;-1.00;99.90;;;;;;4993125;28;20008;-75
2022/01/11 03:34:19;;;;;;;;;;;-1.20;99.90;;;;;;4976570;28;20410;-75
2022/01/11 03:36:45;;;;;;;;;;;-1.20;99.90;;;;;;4974832;28;19922;-75
2022/01/11 03:39:11;;;;;;;;;;;-1.10;99.90;;;;;;4966766;28;19922;-75
2022/01/11 03:41:37;;;;;;;;;;;-1.20;99.90;;;;;;4992419;28;19945;-75
2022/01/11 03:44:06;;;;;;;;;;;-1.10;99.90;;;;;;4976250;28;20318;-75
2022/01/11 03:46:31;;;;;;;;;;;-1.20;99.90;;;;;;4959858;28;19964;-77
2022/01/11 03:49:00;;;;;;;;;;;-1.20;99.90;;;;;;4957647;28;19966;-75
2022/01/11 03:51:26;;;;;;;;;;;-1.20;99.90;;;;;;4957386;28;19922;-77
2022/01/11 03:54:02;;;;;;;;;;;-1.20;99.90;;;;;;4974113;28;19977;-75
2022/01/11 03:56:28;;;;;;;;;;;-1.20;99.90;;;;;;4957223;28;19926;-76
2022/01/11 03:58:54;;;;;;;;;;;-1.10;99.90;;;;;;4957215;28;19928;-75
2022/01/11 04:01:19;;;;;;;;;;;-1.20;99.90;;;;;;4957700;28;19930;-75
2022/01/11 04:03:48;;;;;;;;;;;-1.20;99.90;;;;;;4956767;28;19925;-75
2022/01/11 04:06:16;;;;;;;;;;;-1.20;99.90;;;;;;4956679;28;19922;-76
2022/01/11 04:08:45;;;;;;;;;;;-1.10;99.90;;;;;;4957430;28;19922;-75
2022/01/11 04:11:11;;;;;;;;;;;-1.20;99.90;;;;;;4957159;28;19922;-75
2022/01/11 04:13:37;;;;;;;;;;;-1.30;99.90;;;;;;4972426;28;19922;-75
2022/01/11 04:16:03;;;;;;;;;;;-1.20;99.90;;;;;;4956565;28;19930;-75
2022/01/11 04:18:29;;;;;;;;;;;-1.20;99.90;;;;;;4956705;28;19941;-75
2022/01/11 04:20:54;;;;;;;;;;;-1.20;99.90;;;;;;4956760;28;20321;-76
2022/01/11 04:23:20;;;;;;;;;;;-1.20;99.90;;;;;;4956425;28;19938;-75
2022/01/11 04:25:46;;;;;;;;;;;-1.20;99.90;;;;;;4970845;28;19930;-75
2022/01/11 04:28:11;;;;;;;;;;;-1.30;99.90;;;;;;4956431;28;20382;-75
2022/01/11 04:30:37;;;;;;;;;;;-1.30;99.90;;;;;;4977089;28;20021;-75
2022/01/11 04:33:05;;;;;;;;;;;-1.30;99.90;;;;;;4956144;28;19926;-75
2022/01/11 04:35:34;;;;;;;;;;;-1.30;99.90;;;;;;4956474;28;19926;-75
2022/01/11 04:38:00;;;;;;;;;;;-1.30;99.90;;;;;;4957577;28;20036;-75
2022/01/11 04:40:25;;;;;;;;;;;-1.30;99.90;;;;;;4956367;28;20022;-75
2022/01/11 04:42:51;;;;;;;;;;;-1.30;99.90;;;;;;4955981;28;19922;-75
2022/01/11 04:45:17;;;;;;;;;;;-1.40;99.90;;;;;;4964403;28;19929;-75
2022/01/11 04:47:45;;;;;;;;;;;-1.30;99.90;;;;;;4957054;28;19929;-75
2022/01/11 04:50:11;;;;;;;;;;;-1.40;99.90;;;;;;4964791;28;20013;-75
2022/01/11 04:52:37;;;;;;;;;;;-1.40;99.90;;;;;;4955963;28;19922;-75
2022/01/11 04:55:03;;;;;;;;;;;-1.40;99.90;;;;;;4955796;28;20398;-75
2022/01/11 04:57:29;;;;;;;;;;;-1.40;99.90;;;;;;4956091;28;19933;-76
2022/01/11 04:59:55;;;;;;;;;;;-1.40;99.90;;;;;;4956299;28;19922;-75
2022/01/11 05:02:20;;;;;;;;;;;-1.40;99.90;;;;;;4956176;28;19949;-75
2022/01/11 05:04:46;;;;;;;;;;;-1.40;99.90;;;;;;4971900;28;19929;-75
2022/01/11 05:07:14;;;;;;;;;;;-1.30;99.90;;;;;;4990557;28;19922;-75
2022/01/11 05:09:40;;;;;;;;;;;-1.40;99.90;;;;;;4958999;28;19928;-74
2022/01/11 05:12:14;;;;;;;;;;;-1.40;99.90;;;;;;4955772;28;20017;-75
2022/01/11 05:14:40;;;;;;;;;;;-1.40;99.90;;;;;;4955952;28;19938;-75
2022/01/11 05:17:05;;;;;;;;;;;-1.40;99.90;;;;;;4955854;28;19922;-75
2022/01/11 05:19:31;;;;;;;;;;;-1.50;99.90;;;;;;4971935;28;19964;-75
2022/01/11 05:21:57;;;;;;;;;;;-1.50;99.90;;;;;;4972039;28;20383;-75
2022/01/11 05:24:22;;;;;;;;;;;-1.50;99.90;;;;;;4975147;28;20401;-75
2022/01/11 05:26:48;;;;;;;;;;;-1.50;99.90;;;;;;4975264;28;20308;-75
2022/01/11 05:29:13;;;;;;;;;;;-1.50;99.90;;;;;;4962796;28;19922;-75
2022/01/11 05:31:39;;;;;;;;;;;-1.50;99.90;;;;;;4956014;28;20005;-75
2022/01/11 05:34:05;;;;;;;;;;;-1.50;99.90;;;;;;4956026;28;19930;-75
2022/01/11 05:36:30;;;;;;;;;;;-1.50;99.90;;;;;;4971540;28;20014;-75
2022/01/11 05:38:56;;;;;;;;;;;-1.50;99.90;;;;;;4964257;28;20323;-75
2022/01/11 05:41:22;;;;;;;;;;;-1.50;99.90;;;;;;4975264;28;19921;-75
2022/01/11 05:43:47;;;;;;;;;;;-1.50;99.90;;;;;;4974730;28;19921;-75
2022/01/11 05:46:13;;;;;;;;;;;-1.50;99.90;;;;;;4967038;28;19933;-75
2022/01/11 05:48:42;;;;;;;;;;;-1.50;99.90;;;;;;4956277;28;20337;-75
2022/01/11 05:51:07;;;;;;;;;;;-1.50;99.90;;;;;;4971554;28;20383;-75
2022/01/11 05:53:33;;;;;;;;;;;-1.50;99.90;;;;;;4962820;28;19926;-75
2022/01/11 05:55:59;;;;;;;;;;;-1.50;99.90;;;;;;4971408;28;19926;-75
2022/01/11 05:58:27;;;;;;;;;;;-1.50;99.90;;;;;;4955606;28;19922;-75
2022/01/11 06:00:53;;;;;;;;;;;-1.50;99.90;;;;;;4955400;28;19926;-75
2022/01/11 06:03:18;;;;;;;;;;;-1.50;99.90;;;;;;4966856;28;19926;-75
2022/01/11 06:05:44;;;;;;;;;;;-1.50;99.90;;;;;;4960430;28;19922;-75
2022/01/11 06:08:10;;;;;;;;;;;-1.50;99.90;;;;;;4958900;28;19922;-75
2022/01/11 06:10:35;;;;;;;;;;;-1.60;99.90;;;;;;4974897;28;19926;-75
2022/01/11 06:13:03;;;;;;;;;;;-1.60;99.90;;;;;;4960775;28;19926;-75
2022/01/11 06:15:30;;;;;;;;;;;-1.60;99.90;;;;;;4972609;28;19929;-75
2022/01/11 06:17:59;;;;;;;;;;;-1.60;99.90;;;;;;4978552;28;20305;-75
2022/01/11 06:20:24;;;;;;;;;;;-1.70;99.90;;;;;;4974396;28;19928;-75
2022/01/11 06:22:50;;;;;;;;;;;-1.60;99.90;;;;;;4974300;28;20008;-75
2022/01/11 06:25:15;;;;;;;;;;;-1.70;99.90;;;;;;4974614;28;19922;-75
2022/01/11 06:27:42;;;;;;;;;;;-1.70;99.90;;;;;;4958523;28;19922;-75
2022/01/11 06:30:10;;;;;;;;;;;-1.70;99.90;;;;;;4972068;28;19922;-75
2022/01/11 06:32:37;;;;;;;;;;;-1.70;99.90;;;;;;4972332;28;19929;-75
2022/01/11 06:35:03;;;;;;;;;;;-1.70;99.90;;;;;;4971936;28;20398;-75
2022/01/11 06:37:28;;;;;;;;;;;-1.70;99.90;;;;;;4958441;28;20005;-75
2022/01/11 06:39:54;;;;;;;;;;;-1.70;99.90;;;;;;4959278;28;20005;-75
2022/01/11 06:42:22;;;;;;;;;;;-1.70;99.90;;;;;;4961042;28;20060;-75
2022/01/11 06:44:48;;;;;;;;;;;-1.80;99.90;;;;;;4977764;28;19952;-75
2022/01/11 06:47:13;;;;;;;;;;;-1.70;99.90;;;;;;4977696;28;19925;-75
2022/01/11 06:49:42;;;;;;;;;;;-1.70;99.90;;;;;;4968493;28;19948;-75
2022/01/11 06:52:07;;;;;;;;;;;-1.70;99.90;;;;;;4958840;28;19922;-75
2022/01/11 06:54:33;;;;;;;;;;;-1.70;99.90;;;;;;4973243;28;19973;-75
2022/01/11 06:57:01;;;;;;;;;;;-1.60;99.90;;;;;;4974086;28;19989;-75
2022/01/11 06:59:27;;;;;;;;;;;-1.60;99.90;;;;;;4961473;28;19929;-75
2022/01/11 07:01:52;;;;;;;;;;;-1.60;99.90;;;;;;4958459;28;19926;-75
2022/01/11 07:04:18;;;;;;;;;;;-1.50;99.90;;;;;;4957999;28;19972;-75
2022/01/11 07:06:44;;;;;;;;;;;-1.50;99.90;;;;;;4957785;28;20390;-75
2022/01/11 07:09:09;;;;;;;;;;;-1.50;99.90;;;;;;4961477;28;19926;-75
2022/01/11 07:11:35;;;;;;;;;;;-1.40;99.90;;;;;;4977446;28;19921;-75
2022/01/11 07:14:03;;;;;;;;;;;-1.40;99.90;;;;;;4983024;28;20386;-75
2022/01/11 07:16:29;;;;;;;;;;;-1.40;99.90;;;;;;4969063;28;19973;-75
2022/01/11 07:18:54;;;;;;;;;;;-1.40;99.90;;;;;;4974904;28;19922;-76
2022/01/11 07:21:20;;;;;;;;;;;-1.30;99.90;;;;;;4973776;28;19922;-75
2022/01/11 07:23:46;;;;;;;;;;;-1.40;99.90;;;;;;4957665;28;20020;-75
2022/01/11 07:26:11;;;;;;;;;;;-1.30;99.90;;;;;;4958043;28;20405;-75
2022/01/11 07:28:37;;;;;;;;;;;-1.40;99.90;;;;;;4957869;28;20399;-75
2022/01/11 07:31:03;;;;;;;;;;;-1.30;99.90;;;;;;4974020;28;19972;-75
2022/01/11 07:33:29;;;;;;;;;;;-1.30;99.90;;;;;;4973508;28;19926;-75
2022/01/11 07:35:55;;;;;;;;;;;-1.20;99.90;;;;;;4970023;28;19933;-76
2022/01/11 07:38:20;;;;;;;;;;;-1.30;99.90;;;;;;4971616;28;19973;-75
2022/01/11 07:40:46;;;;;;;;;;;-1.30;99.90;;;;;;4973379;28;19996;-75
2022/01/11 07:43:11;;;;;;;;;;;-1.20;99.90;;;;;;4957997;28;20016;-75
2022/01/11 07:45:37;;;;;;;;;;;-1.10;99.90;;;;;;4976770;28;19922;-75
2022/01/11 07:48:05;;;;;;;;;;;-1.20;99.90;;;;;;4976599;28;20016;-76
2022/01/11 07:50:31;;;;;;;;;;;-1.20;99.90;;;;;;4966569;28;19922;-76
2022/01/11 07:52:59;;;;;;;;;;;-1.10;99.90;;;;;;4978821;28;20382;-74
2022/01/11 07:55:24;;;;;;;;;;;-1.10;99.90;;;;;;4956852;28;20307;-75
2022/01/11 07:57:50;;;;;;;;;;;-1.10;99.90;;;;;;4957019;28;19922;-73
2022/01/11 08:00:16;;;;;;;;;;;-1.00;99.90;;;;;;4961468;28;19922;-74
2022/01/11 08:02:42;;;;;;;;;;;-1.00;99.90;;;;;;4962146;28;19985;-76
2022/01/11 08:05:07;;;;;;;;;;;-0.90;99.90;;;;;;4974177;28;20013;-74
2022/01/11 08:07:33;;;;;;;;;;;-0.90;99.90;;;;;;4976297;28;20360;-74
2022/01/11 08:09:59;;;;;;;;;;;-0.90;99.90;;;;;;4991998;28;19922;-75
2022/01/11 08:12:24;;;;;;;;;;;-0.80;99.90;;;;;;4972693;28;19984;-75
2022/01/11 08:14:50;;;;;;;;;;;-0.80;99.90;;;;;;4972159;28;20416;-73
2022/01/11 08:17:16;;;;;;;;;;;-0.80;99.90;;;;;;4976038;28;19926;-74
2022/01/11 08:19:44;;;;;;;;;;;-0.70;99.90;;;;;;4958148;28;20016;-75
2022/01/11 08:22:10;;;;;;;;;;;-0.80;99.90;;;;;;4972610;28;19973;-75
2022/01/11 08:24:38;;;;;;;;;;;-0.70;99.90;;;;;;4968500;28;19930;-75
2022/01/11 08:27:04;;;;;;;;;;;-0.60;99.90;;;;;;4962990;28;20490;-75
2022/01/11 08:29:29;;;;;;;;;;;-0.60;99.90;;;;;;4972495;28;19930;-75
2022/01/11 08:31:55;;;;;;;;;;;-0.50;99.90;;;;;;4956484;28;20341;-75
2022/01/11 08:34:21;;;;;;;;;;;-0.40;99.90;;;;;;4963437;28;19929;-76
2022/01/11 08:36:50;;;;;;;;;;;-0.40;99.90;;;;;;4969665;28;20303;-77
2022/01/11 08:39:17;;;;;;;;;;;-0.30;99.90;;;;;;4956256;28;19926;-77
2022/01/11 08:41:42;;;;;;;;;;;-0.30;99.90;;;;;;4983908;28;20023;-77
2022/01/11 08:44:11;;;;;;;;;;;-0.20;99.90;;;;;;4991478;28;19925;-75
2022/01/11 08:46:38;;;;;;;;;;;-0.20;99.90;;;;;;4960551;28;19929;-75
2022/01/11 08:49:06;;;;;;;;;;;0.00;99.90;;;;;;4956049;28;20021;-76
2022/01/11 08:51:37;;;;;;;;;;;-0.10;99.90;;;;;;4956204;28;19933;-76
2022/01/11 08:54:03;;;;;;;;;;;0.00;99.90;;;;;;4956219;28;20220;-75
2022/01/11 08:56:30;;;;;;;;;;;0.00;99.90;;;;;;4972633;28;19929;-75
2022/01/11 08:58:55;;;;;;;;;;;0.00;99.90;;;;;;4975185;28;20349;-76
2022/01/11 09:01:21;;;;;;;;;;;0.10;99.90;;;;;;4991774;28;19922;-75
2022/01/11 09:03:47;;;;;;;;;;;0.10;99.90;;;;;;4975131;28;19926;-75
2022/01/11 09:06:15;;;;;;;;;;;0.10;99.90;;;;;;4973730;28;20437;-75
2022/01/11 09:08:41;;;;;;;;;;;0.10;99.90;;;;;;4975392;28;19930;-75
2022/01/11 09:11:09;;;;;;;;;;;0.10;99.90;;;;;;4976153;28;19922;-75
2022/01/11 09:13:36;;;;;;;;;;;0.20;99.90;;;;;;4975428;28;19949;-75
2022/01/11 09:16:03;;;;;;;;;;;0.20;99.90;;;;;;4971477;28;20008;-75
2022/01/11 09:18:29;;;;;;;;;;;0.20;99.90;;;;;;4955991;28;19937;-75
2022/01/11 09:21:00;;;;;;;;;;;0.30;99.90;;;;;;4956321;28;19988;-75
2022/01/11 09:23:31;;;;;;;;;;;0.20;99.90;;;;;;4964082;28;19922;-75
2022/01/11 09:25:57;;;;;;;;;;;0.30;99.90;;;;;;4971064;28;19922;-76
2022/01/11 09:28:25;;;;;;;;;;;0.30;99.90;;;;;;4974895;28;19979;-75
2022/01/11 09:30:51;;;;;;;;;;;0.30;99.90;;;;;;4974787;28;19930;-75
2022/01/11 09:33:16;;;;;;;;;;;0.30;99.90;;;;;;4994335;28;19922;-75
2022/01/11 09:35:42;;;;;;;;;;;0.30;99.90;;;;;;4984622;28;20422;-76
2022/01/11 09:38:14;;;;;;;;;;;0.30;99.90;;;;;;4975398;28;19926;-77
2022/01/11 09:40:39;;;;;;;;;;;0.40;99.90;;;;;;4969572;28;19953;-75
2022/01/11 09:43:05;;;;;;;;;;;0.40;99.90;;;;;;4981938;28;19922;-76
2022/01/11 09:45:31;;;;;;;;;;;0.40;99.90;;;;;;4975157;28;19930;-76
2022/01/11 09:47:56;;;;;;;;;;;0.40;99.90;;;;;;4975238;28;19922;-75
2022/01/11 09:50:24;;;;;;;;;;;0.40;99.90;;;;;;4976804;28;19930;-75
2022/01/11 09:52:55;;;;;;;;;;;0.40;99.90;;;;;;4992872;28;19929;-76
2022/01/11 09:55:21;;;;;;;;;;;0.40;99.90;;;;;;4977862;28;20448;-75
2022/01/11 09:57:46;;;;;;;;;;;0.40;99.90;;;;;;4982060;28;19934;-75
2022/01/11 10:00:12;;;;;;;;;;;0.40;99.90;;;;;;4978175;28;19976;-75
2022/01/11 10:02:38;;;;;;;;;;;0.40;99.90;;;;;;4967561;28;19930;-76
2022/01/11 10:05:06;;;;;;;;;;;0.40;99.90;;;;;;4971395;28;20383;-77
2022/01/11 10:07:33;;;;;;;;;;;0.40;99.90;;;;;;4975563;28;20369;-77
2022/01/11 10:09:58;;;;;;;;;;;0.40;99.90;;;;;;4975332;28;19957;-76
2022/01/11 10:12:24;;;;;;;;;;;0.50;99.90;;;;;;4960699;28;19965;-76
2022/01/11 10:14:57;;;;;;;;;;;0.50;99.90;;;;;;4993729;28;19972;-76
2022/01/11 10:17:29;;;;;;;;;;;0.50;99.90;;;;;;4993347;28;19926;-76
2022/01/11 10:20:13;;;;;;;;;;;0.50;99.90;;;;;;4979568;28;19922;-76
2022/01/11 10:22:48;;;;;;;;;;;0.50;99.90;;;;;;4990054;28;19962;-76
2022/01/11 10:25:17;;;;;;;;;;;0.60;99.90;;;;;;4987513;28;20465;-76
2022/01/11 10:27:43;;;;;;;;;;;0.60;99.90;;;;;;4971309;28;19928;-76
2022/01/11 10:30:11;;;;;;;;;;;0.60;99.90;;;;;;4979685;28;19922;-75
2022/01/11 10:32:45;;;;;;;;;;;0.60;99.90;;;;;;4968958;28;20318;-75
2022/01/11 10:35:12;;;;;;;;;;;0.70;99.90;;;;;;4968127;28;19922;-75
2022/01/11 10:37:41;;;;;;;;;;;0.70;99.90;;;;;;4977128;28;19926;-75
2022/01/11 10:40:16;;;;;;;;;;;0.80;99.90;;;;;;4991208;28;19981;-75
2022/01/11 10:42:50;;;;;;;;;;;0.90;99.90;;;;;;4965730;28;19929;-75
2022/01/11 10:45:18;;;;;;;;;;;1.00;99.90;;;;;;4959048;28;19929;-75
2022/01/11 10:47:47;;;;;;;;;;;1.00;99.90;;;;;;4978280;28;20402;-75
2022/01/11 10:50:15;;;;;;;;;;;1.10;99.90;;;;;;4979423;28;19929;-76
2022/01/11 10:52:42;;;;;;;;;;;1.20;99.90;;;;;;4962152;28;20334;-76
2022/01/11 10:55:11;;;;;;;;;;;1.30;99.90;;;;;;4997433;28;19921;-76
2022/01/11 10:57:41;;;;;;;;;;;1.40;99.90;;;;;;5014708;28;19926;-76
2022/01/11 11:00:07;;;;;;;;;;;1.40;99.90;;;;;;5000024;28;19922;-77
2022/01/11 11:02:36;;;;;;;;;;;1.50;99.90;;;;;;4977830;28;19968;-77
2022/01/11 11:05:13;;;;;;;;;;;1.50;99.90;;;;;;4977930;28;20310;-76
2022/01/11 11:07:42;;;;;;;;;;;1.60;99.90;;;;;;4976570;28;20279;-76
2022/01/11 11:10:08;;;;;;;;;;;1.70;99.90;;;;;;4967985;28;19922;-76
2022/01/11 11:12:37;;;;;;;;;;;1.80;99.90;;;;;;4962401;28;20367;-76
2022/01/11 11:15:03;;;;;;;;;;;1.80;99.90;;;;;;4977315;28;19929;-76
2022/01/11 11:17:38;;;;;;;;;;;1.90;99.90;;;;;;4961666;28;20351;-76
2022/01/11 11:20:05;;;;;;;;;;;1.90;99.90;;;;;;4959000;28;20005;-77
2022/01/11 11:22:31;;;;;;;;;;;1.80;99.90;;;;;;4960304;28;19981;-77
2022/01/11 11:24:57;;;;;;;;;;;1.80;99.90;;;;;;4960865;28;20012;-76
2022/01/11 11:27:24;;;;;;;;;;;1.90;99.90;;;;;;4971004;28;20012;-76
2022/01/11 11:29:52;;;;;;;;;;;2.10;99.90;;;;;;4972017;28;19922;-77
2022/01/11 11:32:21;;;;;;;;;;;2.60;99.90;;;;;;4972329;28;19925;-76
2022/01/11 11:34:50;;;;;;;;;;;3.20;99.90;;;;;;4991350;28;20329;-76
2022/01/11 11:37:34;;;;;;;;;;;3.80;99.90;;;;;;4974238;28;19933;-76
2022/01/11 11:40:03;;;;;;;;;;;4.60;99.90;;;;;;4963530;28;19922;-76
2022/01/11 11:42:29;;;;;;;;;;;5.60;99.90;;;;;;4960238;28;19933;-76
2022/01/11 11:44:57;;;;;;;;;;;6.30;99.90;;;;;;4971901;28;19948;-76
2022/01/11 11:47:31;;;;;;;;;;;7.10;99.90;;;;;;4989314;28;19921;-76
2022/01/11 11:50:00;;;;;;;;;;;7.90;99.90;;;;;;4973054;28;19922;-76
2022/01/11 11:52:38;;;;;;;;;;;8.60;99.90;;;;;;4968870;28;19969;-76
2022/01/11 11:55:25;;;;;;;;;;;9.20;99.90;;;;;;4970356;28;19922;-76
2022/01/11 11:57:55;;;;;;;;;;;9.80;99.90;;;;;;4974584;28;20386;-77
2022/01/11 12:00:24;;;;;;;;;;;10.30;99.90;;;;;;4959569;28;20008;-78
2022/01/11 12:02:54;;;;;;;;;;;10.60;99.90;;;;;;4975577;28;19921;-76
2022/01/11 12:05:39;;;;;;;;;;;10.60;99.90;;;;;;4960858;28;20005;-76
2022/01/11 12:08:53;;;;;;;;;;;10.70;99.90;;;;;;4973234;28;19922;-77
2022/01/11 12:11:18;;;;;;;;;;;10.20;98.40;;;;;;4980992;28;19922;-75
2022/01/11 12:13:51;;;;;;;;;;;9.30;98.30;;;;;;4961903;28;20395;-76
2022/01/11 12:16:26;;;;;;;;;;;8.50;99.90;;;;;;4988734;28;19954;-76
2022/01/11 12:18:53;;;;;;;;;;;7.80;99.90;;;;;;4981754;28;19932;-76
2022/01/11 12:21:20;;;;;;;;;;;7.10;99.90;;;;;;4981644;28;19929;-76
2022/01/11 12:23:47;;;;;;;;;;;6.70;99.90;;;;;;4987156;28;19926;-76
2022/01/11 12:26:16;;;;;;;;;;;6.50;99.90;;;;;;4962552;28;19926;-76
2022/01/11 12:28:42;;;;;;;;;;;6.40;99.90;;;;;;4962007;28;19933;-76
2022/01/11 12:31:24;;;;;;;;;;;6.20;99.90;;;;;;4991675;28;19922;-76
2022/01/11 12:33:49;;;;;;;;;;;6.10;99.90;;;;;;4986825;28;19944;-76
2022/01/11 12:36:18;;;;;;;;;;;6.20;99.90;;;;;;4978126;28;19921;-76
2022/01/11 12:39:09;;;;;;;;;;;6.20;99.90;;;;;;4978045;28;20421;-76
2022/01/11 12:41:37;;;;;;;;;;;6.10;99.90;;;;;;4981135;28;20062;-76
2022/01/11 12:44:25;;;;;;;;;;;5.80;99.90;;;;;;4959827;28;20429;-76
2022/01/11 12:46:51;;;;;;;;;;;5.60;99.90;;;;;;4991064;28;19953;-77
2022/01/11 12:49:17;;;;;;;;;;;5.40;99.90;;;;;;4966819;28;19961;-77
2022/01/11 12:51:55;;;;;;;;;;;5.20;99.90;;;;;;4974188;28;19921;-76
2022/01/11 12:54:30;;;;;;;;;;;5.20;99.90;;;;;;4990651;28;20281;-77
2022/01/11 12:56:57;;;;;;;;;;;5.10;99.90;;;;;;4973291;28;20432;-77
2022/01/11 12:59:25;;;;;;;;;;;5.00;99.90;;;;;;4968479;28;19922;-77
2022/01/11 13:02:01;;;;;;;;;;;4.90;99.90;;;;;;4960351;28;19922;-77
2022/01/11 13:04:44;;;;;;;;;;;4.80;99.90;;;;;;4965299;28;19922;-77
2022/01/11 13:07:16;;;;;;;;;;;4.80;99.90;;;;;;4957245;28;20383;-77
2022/01/11 13:09:44;;;;;;;;;;;4.70;99.90;;;;;;4970090;28;20275;-78
2022/01/11 13:12:23;;;;;;;;;;;4.60;99.90;;;;;;4968464;28;19937;-77
2022/01/11 13:14:57;;;;;;;;;;;4.50;99.90;;;;;;4973130;28;19945;-77
2022/01/11 13:17:25;;;;;;;;;;;4.70;99.90;;;;;;4956441;28;19926;-77
2022/01/11 13:19:57;;;;;;;;;;;4.60;99.90;;;;;;4966762;28;20302;-77
2022/01/11 13:22:25;;;;;;;;;;;4.60;99.90;;;;;;4969473;28;19926;-77
2022/01/11 13:25:04;;;;;;;;;;;4.60;99.90;;;;;;4976344;28;19922;-77
2022/01/11 13:27:32;;;;;;;;;;;4.50;99.90;;;;;;4959676;28;20401;-77
2022/01/11 13:29:57;;;;;;;;;;;4.50;99.90;;;;;;4956985;28;19922;-77
2022/01/11 13:32:23;;;;;;;;;;;4.50;99.90;;;;;;4972303;28;20346;-77
2022/01/11 13:34:53;;;;;;;;;;;4.40;99.90;;;;;;4986013;28;20024;-77
2022/01/11 13:37:27;;;;;;;;;;;4.40;99.90;;;;;;4989889;28;19930;-77
2022/01/11 13:39:55;;;;;;;;;;;4.40;99.90;;;;;;4991410;28;20333;-77
2022/01/11 13:42:24;;;;;;;;;;;4.30;99.90;;;;;;4977643;28;19926;-77
2022/01/11 13:44:51;;;;;;;;;;;4.20;99.90;;;;;;4971914;28;19922;-77
2022/01/11 13:47:20;;;;;;;;;;;4.20;99.90;;;;;;4956309;28;19976;-77
2022/01/11 13:49:53;;;;;;;;;;;4.20;99.90;;;;;;4962220;28;19922;-77
2022/01/11 13:52:22;;;;;;;;;;;4.20;99.90;;;;;;4970825;28;19932;-77
2022/01/11 13:54:48;;;;;;;;;;;4.10;99.90;;;;;;4971468;28;19921;-77
2022/01/11 13:57:15;;;;;;;;;;;4.10;99.90;;;;;;4957667;28;19980;-77
2022/01/11 13:59:40;;;;;;;;;;;4.20;99.90;;;;;;4969955;28;19976;-77
2022/01/11 14:02:13;;;;;;;;;;;4.20;99.90;;;;;;4973963;28;19925;-77
2022/01/11 14:04:42;;;;;;;;;;;4.20;99.90;;;;;;4974275;28;19961;-77
2022/01/11 14:07:15;;;;;;;;;;;4.20;99.90;;;;;;4966476;28;19944;-77
2022/01/11 14:09:52;;;;;;;;;;;4.20;99.90;;;;;;4955301;28;20283;-77
2022/01/11 14:12:22;;;;;;;;;;;4.10;99.90;;;;;;4956064;28;19922;-77
2022/01/11 14:14:57;;;;;;;;;;;4.20;99.90;;;;;;4956348;28;19922;-77
2022/01/11 14:17:27;;;;;;;;;;;4.10;99.90;;;;;;4962348;28;19933;-75
2022/01/11 14:19:57;;;;;;;;;;;4.10;99.90;;;;;;4981098;28;19926;-76
2022/01/11 14:22:35;;;;;;;;;;;4.00;99.90;;;;;;4960511;28;19933;-76
2022/01/11 14:25:04;;;;;;;;;;;4.00;99.90;;;;;;4989466;28;19929;-76
2022/01/11 14:27:33;;;;;;;;;;;4.00;99.90;;;;;;4978516;28;19925;-76
2022/01/11 14:30:13;;;;;;;;;;;4.00;99.90;;;;;;4976320;28;19923;-76
2022/01/11 14:32:49;;;;;;;;;;;4.00;99.90;;;;;;4997476;28;19972;-76